Time;durP1;ratioP1;P1;durP2;ratioP2;P2;SDS_P1;SDS_P2;PMS_P1;PMS_P2;Temp;Humidity;BMP_temperature;BMP_pressure;BME280_temperature;BME280_humidity;BME280_pressure;Samples;Min_cycle;Max_cycle;Signal;HPM_P1;HPM_P2
2022/11/02 00:01:48;;;;;;;1.23;0.50;;;9.90;99.90;;;;;;5099467;28;20471;-82
2022/11/02 00:04:15;;;;;;;0.50;0.30;;;9.90;99.90;;;;;;5099828;28;20451;-83
2022/11/02 00:06:43;;;;;;;0.40;0.37;;;9.90;99.90;;;;;;5099865;28;20474;-82
2022/11/02 00:09:11;;;;;;;0.47;0.33;;;9.90;99.90;;;;;;5099824;28;20437;-82
2022/11/02 00:11:38;;;;;;;0.30;0.30;;;9.90;99.90;;;;;;5099705;28;20469;-82
2022/11/02 00:14:05;;;;;;;0.40;0.30;;;9.90;99.90;;;;;;5099422;28;20455;-82
2022/11/02 00:16:32;;;;;;;0.43;0.40;;;9.90;99.90;;;;;;5099516;28;20475;-82
2022/11/02 00:19:01;;;;;;;0.50;0.40;;;9.90;99.90;;;;;;5099606;28;20484;-82
2022/11/02 00:21:28;;;;;;;0.37;0.30;;;9.90;99.90;;;;;;5099614;28;20467;-82
2022/11/02 00:23:56;;;;;;;0.60;0.40;;;9.90;99.90;;;;;;5099841;28;20455;-82
2022/11/02 00:26:24;;;;;;;0.40;0.30;;;9.90;99.90;;;;;;5099340;28;20448;-82
2022/11/02 00:28:52;;;;;;;0.37;0.30;;;9.80;99.90;;;;;;5099877;28;20447;-82
2022/11/02 00:31:19;;;;;;;0.40;0.33;;;9.80;99.90;;;;;;5099256;28;20979;-82
2022/11/02 00:33:45;;;;;;;0.30;0.30;;;9.80;99.90;;;;;;5099171;28;20821;-82
2022/11/02 00:36:13;;;;;;;0.30;0.30;;;9.80;99.90;;;;;;5099695;28;20444;-82
2022/11/02 00:38:40;;;;;;;0.40;0.40;;;9.80;99.90;;;;;;5099185;28;21018;-82
2022/11/02 00:41:06;;;;;;;0.33;0.30;;;9.80;99.90;;;;;;5099453;28;20447;-82
2022/11/02 00:43:35;;;;;;;0.30;0.30;;;9.80;99.90;;;;;;5096735;28;20468;-82
2022/11/02 00:46:01;;;;;;;0.60;0.47;;;9.90;99.90;;;;;;5095993;28;20943;-82
2022/11/02 00:48:28;;;;;;;0.63;0.47;;;9.90;99.90;;;;;;5096275;28;20452;-82
2022/11/02 00:50:55;;;;;;;0.40;0.30;;;9.90;99.90;;;;;;5096141;28;20445;-82
2022/11/02 00:53:22;;;;;;;0.40;0.30;;;9.90;99.90;;;;;;5095863;28;20962;-81
2022/11/02 00:55:49;;;;;;;1.03;0.57;;;9.90;99.90;;;;;;5096069;28;20451;-82
2022/11/02 00:58:16;;;;;;;0.30;0.30;;;9.90;99.90;;;;;;5096015;28;20449;-82
2022/11/02 01:00:44;;;;;;;0.40;0.30;;;9.90;99.90;;;;;;5096113;28;20433;-82
2022/11/02 01:03:10;;;;;;;2.20;0.50;;;10.00;99.90;;;;;;5095895;28;20475;-82
2022/11/02 01:05:37;;;;;;;0.97;0.40;;;10.00;99.90;;;;;;5095981;28;20453;-82
2022/11/02 01:08:05;;;;;;;0.30;0.30;;;9.90;99.90;;;;;;5096172;28;20472;-83
2022/11/02 01:10:32;;;;;;;0.60;0.60;;;10.00;99.90;;;;;;5095855;28;20447;-83
2022/11/02 01:12:58;;;;;;;0.40;0.40;;;9.90;99.90;;;;;;5095754;28;20475;-82
2022/11/02 01:15:25;;;;;;;1.43;0.47;;;10.00;99.90;;;;;;5095737;28;20449;-82
2022/11/02 01:17:53;;;;;;;0.50;0.30;;;9.90;99.90;;;;;;5095533;28;20491;-82
2022/11/02 01:20:20;;;;;;;0.40;0.30;;;9.90;99.90;;;;;;5095521;28;20484;-82
2022/11/02 01:22:47;;;;;;;0.40;0.40;;;9.90;99.90;;;;;;5095492;28;20475;-82
2022/11/02 01:25:14;;;;;;;0.40;0.40;;;9.90;99.90;;;;;;5095529;28;20448;-82
2022/11/02 01:27:40;;;;;;;0.40;0.30;;;9.90;99.90;;;;;;5095533;28;20502;-82
2022/11/02 01:30:08;;;;;;;0.87;0.40;;;10.00;99.90;;;;;;5095461;28;20445;-82
2022/11/02 01:32:35;;;;;;;0.93;0.50;;;10.00;99.90;;;;;;5095251;28;20460;-82
2022/11/02 01:35:03;;;;;;;0.37;0.30;;;10.00;99.90;;;;;;5095400;28;20455;-82
2022/11/02 01:37:30;;;;;;;0.40;0.30;;;10.00;99.90;;;;;;5095999;28;20441;-82
2022/11/02 01:39:56;;;;;;;0.40;0.40;;;9.90;99.90;;;;;;5095292;28;20480;-82
2022/11/02 01:42:25;;;;;;;0.50;0.33;;;9.90;99.90;;;;;;5095088;28;20465;-81
2022/11/02 01:44:53;;;;;;;0.30;0.30;;;9.90;99.90;;;;;;5095093;28;20445;-82
2022/11/02 01:47:24;;;;;;;0.80;0.50;;;9.90;99.90;;;;;;5095109;28;20451;-82
2022/11/02 01:49:55;;;;;;;0.40;0.30;;;9.90;99.90;;;;;;5094827;28;20900;-82
2022/11/02 01:52:28;;;;;;;0.40;0.40;;;9.90;99.90;;;;;;5095500;28;20807;-82
2022/11/02 01:54:59;;;;;;;1.03;0.90;;;10.00;99.90;;;;;;5094575;28;20920;-82
2022/11/02 01:57:28;;;;;;;0.40;0.30;;;10.00;99.90;;;;;;5094938;28;20527;-82
2022/11/02 01:59:58;;;;;;;0.40;0.40;;;10.00;99.90;;;;;;5094790;28;20480;-82
2022/11/02 02:02:27;;;;;;;0.40;0.40;;;9.90;99.90;;;;;;5094762;28;20975;-82
2022/11/02 02:05:01;;;;;;;0.40;0.40;;;10.00;99.90;;;;;;5094480;28;20451;-82
2022/11/02 02:07:31;;;;;;;0.40;0.40;;;10.00;99.90;;;;;;5094643;28;20816;-82
2022/11/02 02:09:58;;;;;;;0.40;0.40;;;10.00;99.90;;;;;;5094630;28;20429;-82
2022/11/02 02:12:25;;;;;;;0.50;0.47;;;10.00;99.90;;;;;;5094170;28;21021;-82
2022/11/02 02:14:53;;;;;;;0.40;0.33;;;9.90;99.90;;;;;;5094589;28;20463;-81
2022/11/02 02:17:30;;;;;;;0.30;0.30;;;9.90;99.90;;;;;;5094228;28;20507;-82
2022/11/02 02:20:02;;;;;;;0.40;0.40;;;9.90;99.90;;;;;;5094129;28;20461;-82
2022/11/02 02:23:03;;;;;;;0.30;0.30;;;9.90;99.90;;;;;;5094069;28;21038;-82
2022/11/02 02:26:04;;;;;;;0.60;0.50;;;9.90;99.90;;;;;;5091155;28;20468;-82
2022/11/02 02:28:38;;;;;;;0.40;0.40;;;9.90;99.90;;;;;;5094248;28;20443;-81
2022/11/02 02:31:12;;;;;;;0.50;0.40;;;9.90;99.90;;;;;;5094154;28;20811;-82
2022/11/02 02:33:46;;;;;;;0.50;0.50;;;9.90;99.90;;;;;;5094290;28;20436;-82
2022/11/02 02:36:18;;;;;;;3.43;0.67;;;10.00;99.90;;;;;;5094301;28;20436;-82
2022/11/02 02:38:48;;;;;;;0.33;0.30;;;9.90;99.90;;;;;;5093819;28;20437;-82
2022/11/02 02:41:23;;;;;;;0.53;0.40;;;10.00;99.90;;;;;;5094315;28;20486;-82
2022/11/02 02:43:54;;;;;;;0.80;0.80;;;10.00;99.90;;;;;;5094250;28;20440;-82
2022/11/02 02:46:27;;;;;;;0.50;0.40;;;10.00;99.90;;;;;;5094097;28;20432;-82
2022/11/02 02:48:57;;;;;;;0.33;0.30;;;10.00;99.90;;;;;;5094242;28;20433;-82
2022/11/02 02:51:27;;;;;;;0.50;0.50;;;9.90;99.90;;;;;;5093959;28;20464;-82
2022/11/02 02:53:59;;;;;;;1.83;0.47;;;10.00;99.90;;;;;;5093865;28;20433;-82
2022/11/02 02:56:30;;;;;;;0.40;0.30;;;9.90;99.90;;;;;;5094106;28;20436;-82
2022/11/02 02:59:01;;;;;;;0.53;0.33;;;9.90;99.90;;;;;;5093968;28;20460;-82
2022/11/02 03:01:28;;;;;;;0.50;0.40;;;9.90;99.90;;;;;;5094013;28;20472;-82
2022/11/02 03:03:55;;;;;;;0.47;0.47;;;10.00;99.90;;;;;;5093943;28;20455;-82
2022/11/02 03:06:26;;;;;;;0.40;0.40;;;10.00;99.90;;;;;;5092876;28;20449;-82
2022/11/02 03:09:05;;;;;;;0.60;0.40;;;10.00;99.90;;;;;;5093683;28;20437;-82
2022/11/02 03:11:33;;;;;;;0.50;0.50;;;10.00;99.90;;;;;;5093605;28;20468;-82
2022/11/02 03:14:15;;;;;;;0.40;0.40;;;10.00;99.90;;;;;;5093310;28;20444;-82
2022/11/02 03:16:52;;;;;;;1.77;0.60;;;10.00;99.90;;;;;;5093269;28;20484;-82
2022/11/02 03:19:24;;;;;;;0.40;0.40;;;10.00;99.90;;;;;;5093519;28;20494;-82
2022/11/02 03:21:59;;;;;;;0.30;0.30;;;10.10;99.90;;;;;;5093373;28;21010;-81
2022/11/02 03:24:30;;;;;;;0.50;0.40;;;10.10;99.90;;;;;;5093486;28;20433;-82
2022/11/02 03:27:07;;;;;;;0.40;0.30;;;10.10;99.90;;;;;;5093685;28;20507;-82
2022/11/02 03:29:42;;;;;;;0.30;0.30;;;10.10;99.90;;;;;;5093189;28;20892;-82
2022/11/02 03:32:13;;;;;;;0.70;0.40;;;10.10;99.90;;;;;;5093006;28;20986;-82
2022/11/02 03:34:44;;;;;;;1.03;0.70;;;10.10;99.90;;;;;;5093669;28;20437;-82
2022/11/02 03:37:16;;;;;;;0.50;0.40;;;10.10;99.90;;;;;;5093352;28;20433;-81
2022/11/02 03:39:46;;;;;;;0.40;0.37;;;10.10;99.90;;;;;;5093279;28;20465;-82
2022/11/02 03:42:17;;;;;;;0.87;0.87;;;10.10;99.90;;;;;;5093545;28;20464;-82
2022/11/02 03:44:48;;;;;;;0.30;0.30;;;10.10;99.90;;;;;;5093831;28;20429;-82
2022/11/02 03:47:17;;;;;;;0.43;0.40;;;10.10;99.90;;;;;;5093676;28;20856;-82
2022/11/02 03:49:46;;;;;;;0.63;0.60;;;10.10;99.90;;;;;;5093200;28;20440;-82
2022/11/02 03:52:17;;;;;;;0.30;0.30;;;10.10;99.90;;;;;;5092880;28;20994;-82
2022/11/02 03:54:49;;;;;;;0.30;0.30;;;10.00;99.90;;;;;;5093223;28;20433;-82
2022/11/02 03:57:21;;;;;;;0.30;0.30;;;10.00;99.90;;;;;;5093212;28;20436;-82
2022/11/02 03:59:49;;;;;;;0.40;0.40;;;10.00;99.90;;;;;;5093852;28;20468;-82
2022/11/02 04:02:18;;;;;;;0.37;0.30;;;10.00;99.90;;;;;;5093029;28;20475;-82
2022/11/02 04:04:49;;;;;;;0.60;0.33;;;10.00;99.90;;;;;;5093074;28;20444;-82
2022/11/02 04:07:21;;;;;;;0.63;0.40;;;10.00;99.90;;;;;;5093077;28;20456;-82
2022/11/02 04:09:48;;;;;;;0.50;0.30;;;10.10;99.90;;;;;;5093077;28;20432;-82
2022/11/02 04:15:01;;;;;;;0.43;0.40;;;10.10;99.90;;;;;;5093064;28;20405;-82
2022/11/02 04:20:12;;;;;;;0.40;0.30;;;10.10;99.90;;;;;;5096171;28;20456;-82
2022/11/02 04:25:34;;;;;;;0.40;0.40;;;10.00;99.90;;;;;;5054376;28;20418;-81
2022/11/02 04:28:07;;;;;;;0.40;0.30;;;10.00;99.90;;;;;;5085974;28;20448;-82
2022/11/02 04:30:35;;;;;;;0.40;0.40;;;10.00;99.90;;;;;;5096657;28;20432;-82
2022/11/02 04:35:46;;;;;;;0.40;0.30;;;10.00;99.90;;;;;;5096628;28;20397;-82
2022/11/02 04:43:40;;;;;;;0.40;0.37;;;9.90;99.90;;;;;;5095819;28;21004;-82
2022/11/02 04:46:08;;;;;;;0.40;0.30;;;9.90;99.90;;;;;;5096297;28;20846;-82
2022/11/02 04:48:35;;;;;;;0.40;0.30;;;9.80;99.90;;;;;;5096258;28;20436;-82
2022/11/02 04:51:01;;;;;;;0.30;0.20;;;9.80;99.90;;;;;;5096414;28;20455;-83
2022/11/02 04:53:28;;;;;;;0.60;0.37;;;9.80;99.90;;;;;;5095906;28;20965;-82
2022/11/02 04:55:55;;;;;;;0.30;0.30;;;9.70;99.90;;;;;;5096161;28;20786;-82
2022/11/02 04:58:21;;;;;;;0.30;0.30;;;9.70;99.90;;;;;;5096172;28;20801;-82
2022/11/02 05:00:48;;;;;;;0.70;0.33;;;9.70;99.90;;;;;;5096025;28;20538;-82
2022/11/02 05:03:16;;;;;;;0.40;0.37;;;9.70;99.90;;;;;;5095630;28;20987;-82
2022/11/02 05:05:43;;;;;;;0.43;0.43;;;9.70;99.90;;;;;;5095687;28;20470;-82
2022/11/02 05:08:10;;;;;;;0.30;0.30;;;9.70;99.90;;;;;;5095935;28;20445;-82
2022/11/02 05:10:37;;;;;;;0.40;0.40;;;9.70;99.90;;;;;;5095538;28;20448;-82
2022/11/02 05:13:03;;;;;;;0.70;0.30;;;9.70;99.90;;;;;;5095735;28;20461;-82
2022/11/02 05:15:30;;;;;;;0.43;0.43;;;9.60;99.90;;;;;;5095786;28;20445;-82
2022/11/02 05:17:57;;;;;;;0.30;0.30;;;9.60;99.90;;;;;;5095280;28;20979;-82
2022/11/02 05:20:26;;;;;;;0.40;0.30;;;9.60;99.90;;;;;;5095300;28;20966;-83
2022/11/02 05:22:53;;;;;;;0.40;0.30;;;9.60;99.90;;;;;;5095518;28;20471;-82
2022/11/02 05:25:20;;;;;;;0.30;0.30;;;9.60;99.90;;;;;;5095399;28;20813;-82
2022/11/02 05:27:46;;;;;;;;;;;9.70;99.90;;;;;;5095662;28;20530;-82
2022/11/02 05:30:13;;;;;;;1.43;0.40;;;9.70;99.90;;;;;;5095081;28;20800;-82
2022/11/02 05:32:40;;;;;;;;;;;9.60;99.90;;;;;;5095481;28;20480;-82
2022/11/02 05:35:07;;;;;;;;;;;9.60;99.90;;;;;;5095466;28;20480;-82
2022/11/02 05:37:35;;;;;;;;;;;9.60;99.90;;;;;;5095584;28;20966;-82
2022/11/02 05:40:01;;;;;;;;;;;9.60;99.90;;;;;;5095381;28;25080;-82
2022/11/02 05:42:28;;;;;;;;;;;9.60;99.90;;;;;;5095189;28;20070;-82
2022/11/02 05:44:55;;;;;;;;;;;9.70;99.90;;;;;;5095576;28;20165;-82
2022/11/02 05:47:21;;;;;;;;;;;9.70;99.90;;;;;;5095499;28;20159;-82
2022/11/02 05:49:48;;;;;;;;;;;9.70;99.90;;;;;;5095457;28;20442;-82
2022/11/02 05:52:14;;;;;;;;;;;9.80;99.90;;;;;;5095247;28;20693;-82
2022/11/02 05:54:42;;;;;;;;;;;9.80;99.90;;;;;;5094915;28;20784;-82
2022/11/02 05:57:09;;;;;;;2.47;0.40;;;9.80;99.90;;;;;;5094901;28;20256;-82
2022/11/02 05:59:36;;;;;;;0.70;0.33;;;9.80;99.90;;;;;;5095039;28;20452;-82
2022/11/02 06:02:03;;;;;;;0.30;0.30;;;9.80;99.90;;;;;;5094792;28;20472;-82
2022/11/02 06:04:29;;;;;;;0.40;0.40;;;9.80;99.90;;;;;;5094815;28;20463;-82
2022/11/02 06:06:56;;;;;;;1.53;0.47;;;9.80;99.90;;;;;;5094788;28;20466;-82
2022/11/02 06:09:23;;;;;;;0.60;0.30;;;9.80;99.90;;;;;;5094745;28;20444;-82
2022/11/02 06:11:51;;;;;;;0.40;0.30;;;9.90;99.90;;;;;;5094857;28;20490;-83
2022/11/02 06:14:18;;;;;;;0.30;0.30;;;9.90;99.90;;;;;;5094311;28;20459;-82
2022/11/02 06:16:45;;;;;;;0.30;0.27;;;9.90;99.90;;;;;;5094414;28;20480;-82
2022/11/02 06:19:11;;;;;;;0.30;0.30;;;9.90;99.90;;;;;;5094530;28;20825;-82
2022/11/02 06:21:39;;;;;;;0.30;0.30;;;9.80;99.90;;;;;;5093988;28;20815;-82
2022/11/02 06:24:07;;;;;;;0.30;0.23;;;9.80;99.90;;;;;;5094430;28;20456;-82
2022/11/02 06:26:34;;;;;;;0.30;0.30;;;9.80;99.90;;;;;;5093958;28;20460;-82
2022/11/02 06:29:02;;;;;;;0.40;0.30;;;9.80;99.90;;;;;;5094345;28;20441;-84
2022/11/02 06:31:29;;;;;;;0.30;0.30;;;9.90;99.90;;;;;;5094401;28;20496;-82
2022/11/02 06:33:55;;;;;;;0.40;0.30;;;9.90;99.90;;;;;;5094265;28;20436;-83
2022/11/02 06:36:22;;;;;;;0.40;0.40;;;9.90;99.90;;;;;;5094366;28;20436;-82
2022/11/02 06:38:50;;;;;;;0.40;0.30;;;10.00;99.90;;;;;;5094180;28;20437;-82
2022/11/02 06:41:17;;;;;;;0.60;0.60;;;10.10;99.90;;;;;;5092868;28;20476;-82
2022/11/02 06:43:43;;;;;;;0.30;0.20;;;10.30;99.90;;;;;;5093869;28;20451;-82
2022/11/02 06:46:11;;;;;;;0.77;0.30;;;10.30;99.90;;;;;;5094116;28;20452;-82
2022/11/02 06:48:38;;;;;;;0.57;0.30;;;10.30;99.90;;;;;;5094013;28;20445;-82
2022/11/02 06:51:06;;;;;;;0.50;0.40;;;10.40;99.90;;;;;;5093946;28;20437;-83
2022/11/02 06:53:33;;;;;;;2.00;0.40;;;10.50;99.90;;;;;;5094027;28;20490;-83
2022/11/02 06:56:00;;;;;;;0.40;0.30;;;10.50;99.90;;;;;;5093632;28;20449;-82
2022/11/02 06:58:27;;;;;;;0.30;0.30;;;10.60;99.90;;;;;;5093523;28;20955;-83
2022/11/02 07:00:58;;;;;;;0.47;0.33;;;10.70;99.90;;;;;;5093864;28;20481;-82
2022/11/02 07:03:26;;;;;;;0.40;0.40;;;10.70;99.90;;;;;;5093509;28;20947;-82
2022/11/02 07:05:54;;;;;;;0.40;0.30;;;10.80;99.90;;;;;;5093819;28;20807;-83
2022/11/02 07:08:21;;;;;;;0.30;0.30;;;10.80;99.90;;;;;;5093707;28;20448;-82
2022/11/02 07:10:49;;;;;;;2.73;0.50;;;10.80;99.90;;;;;;5093359;28;20966;-82
2022/11/02 07:13:16;;;;;;;0.30;0.30;;;10.90;99.90;;;;;;5093271;28;20467;-82
2022/11/02 07:15:42;;;;;;;0.40;0.30;;;10.80;99.90;;;;;;5093513;28;20447;-82
2022/11/02 07:18:10;;;;;;;0.40;0.30;;;10.90;99.90;;;;;;5093394;28;20480;-82
2022/11/02 07:20:38;;;;;;;1.17;0.50;;;10.90;99.90;;;;;;5098336;28;20492;-82
2022/11/02 07:23:05;;;;;;;0.30;0.20;;;10.90;99.90;;;;;;5093190;28;20517;-82
2022/11/02 07:25:32;;;;;;;0.60;0.40;;;11.00;99.90;;;;;;5093607;28;20453;-81
2022/11/02 07:28:01;;;;;;;0.40;0.30;;;11.00;99.90;;;;;;5093141;28;20936;-82
2022/11/02 07:30:28;;;;;;;0.60;0.60;;;11.10;99.90;;;;;;5093393;28;20455;-83
2022/11/02 07:32:55;;;;;;;0.50;0.30;;;11.20;99.90;;;;;;5093043;28;20465;-82
2022/11/02 07:35:22;;;;;;;0.30;0.30;;;11.20;99.90;;;;;;5093392;28;20833;-82
2022/11/02 07:37:57;;;;;;;0.60;0.40;;;11.30;99.90;;;;;;5093781;28;20505;-83
2022/11/02 07:40:24;;;;;;;0.30;0.30;;;11.30;99.90;;;;;;5093241;28;20452;-82
2022/11/02 07:42:52;;;;;;;1.80;0.77;;;11.40;99.90;;;;;;5093268;28;20615;-82
2022/11/02 07:45:19;;;;;;;0.93;0.70;;;11.40;99.90;;;;;;5093267;28;20798;-82
2022/11/02 07:47:47;;;;;;;0.40;0.30;;;11.40;99.90;;;;;;5093032;28;20896;-82
2022/11/02 07:50:16;;;;;;;0.40;0.40;;;11.40;99.90;;;;;;5092961;28;20462;-82
2022/11/02 07:52:47;;;;;;;0.50;0.50;;;11.40;99.90;;;;;;5094120;28;20469;-81
2022/11/02 07:55:17;;;;;;;0.50;0.50;;;11.50;99.90;;;;;;5097329;28;20444;-82
2022/11/02 07:57:52;;;;;;;0.50;0.50;;;11.40;99.90;;;;;;5097042;28;20947;-82
2022/11/02 08:00:19;;;;;;;0.40;0.30;;;11.50;99.90;;;;;;5097255;28;20429;-81
2022/11/02 08:02:45;;;;;;;0.40;0.30;;;11.70;99.90;;;;;;5097127;28;20474;-82
2022/11/02 08:05:12;;;;;;;0.70;0.70;;;11.80;99.90;;;;;;5097136;28;20452;-81
2022/11/02 08:07:39;;;;;;;0.73;0.60;;;12.00;99.90;;;;;;5096878;28;20958;-81
2022/11/02 08:10:07;;;;;;;0.60;0.43;;;12.00;99.90;;;;;;5096854;28;20962;-82
2022/11/02 08:12:35;;;;;;;0.40;0.30;;;12.00;99.90;;;;;;5097226;28;20521;-82
2022/11/02 08:15:02;;;;;;;1.07;0.40;;;12.20;99.90;;;;;;5097528;28;20445;-81
2022/11/02 08:17:28;;;;;;;0.43;0.43;;;12.40;99.90;;;;;;5096640;28;20554;-82
2022/11/02 08:19:55;;;;;;;1.13;0.97;;;12.50;99.90;;;;;;5096676;28;20429;-82
2022/11/02 08:22:22;;;;;;;0.87;0.37;;;12.70;99.90;;;;;;5096712;28;20495;-82
2022/11/02 08:24:49;;;;;;;0.50;0.40;;;12.90;99.90;;;;;;5096846;28;20445;-82
2022/11/02 08:27:15;;;;;;;0.40;0.30;;;13.00;99.90;;;;;;5096852;28;20452;-81
2022/11/02 08:29:44;;;;;;;2.13;0.37;;;13.20;99.90;;;;;;5096769;28;20440;-81
2022/11/02 08:32:10;;;;;;;0.40;0.40;;;13.30;99.90;;;;;;5096588;28;20457;-81
2022/11/02 08:34:37;;;;;;;0.30;0.27;;;13.50;99.90;;;;;;5096355;28;20982;-81
2022/11/02 08:37:07;;;;;;;0.40;0.30;;;13.60;99.90;;;;;;5096641;28;20536;-81
2022/11/02 08:39:34;;;;;;;0.30;0.30;;;13.70;99.90;;;;;;5096556;28;20470;-82
2022/11/02 08:42:00;;;;;;;0.40;0.40;;;14.00;99.90;;;;;;5096367;28;20484;-81
2022/11/02 08:44:27;;;;;;;0.57;0.30;;;14.20;99.90;;;;;;5096497;28;20444;-81
2022/11/02 08:46:56;;;;;;;0.93;0.50;;;14.50;99.90;;;;;;5096468;28;20429;-82
2022/11/02 08:49:23;;;;;;;1.53;0.50;;;14.60;99.90;;;;;;5096357;28;20520;-82
2022/11/02 08:51:50;;;;;;;5.37;0.57;;;14.80;99.90;;;;;;5096429;28;20468;-82
2022/11/02 08:54:17;;;;;;;0.40;0.40;;;14.90;99.90;;;;;;5096253;28;20451;-82
2022/11/02 08:56:44;;;;;;;0.30;0.30;;;15.20;99.90;;;;;;5096089;28;20463;-81
2022/11/02 08:59:10;;;;;;;1.30;0.33;;;15.40;99.90;;;;;;5096212;28;20451;-81
2022/11/02 09:01:38;;;;;;;2.00;0.50;;;15.90;99.90;;;;;;5096904;28;20484;-82
2022/11/02 09:04:06;;;;;;;0.30;0.30;;;16.30;99.90;;;;;;5095335;28;20450;-81
2022/11/02 09:06:33;;;;;;;0.40;0.40;;;16.60;99.90;;;;;;5096126;28;20456;-82
2022/11/02 09:09:00;;;;;;;0.30;0.30;;;16.60;99.90;;;;;;5096282;28;20802;-82
2022/11/02 09:11:27;;;;;;;0.50;0.37;;;16.50;99.90;;;;;;5096099;28;20474;-82
2022/11/02 09:13:53;;;;;;;0.40;0.40;;;16.40;99.90;;;;;;5096104;28;20498;-82
2022/11/02 09:16:20;;;;;;;2.60;0.57;;;16.30;99.90;;;;;;5095831;28;20480;-82
2022/11/02 09:18:47;;;;;;;0.57;0.57;;;16.20;99.90;;;;;;5095531;28;20453;-82
2022/11/02 09:21:15;;;;;;;0.43;0.43;;;16.20;99.90;;;;;;5096327;28;20843;-82
2022/11/02 09:23:42;;;;;;;0.40;0.40;;;16.00;99.90;;;;;;5095683;28;20454;-82
2022/11/02 09:26:09;;;;;;;0.33;0.30;;;16.00;99.90;;;;;;5096162;28;20449;-82
2022/11/02 09:28:36;;;;;;;0.40;0.40;;;15.80;99.90;;;;;;5100792;28;20535;-91
2022/11/02 09:31:04;;;;;;;6.73;0.50;;;15.60;99.90;;;;;;5102007;28;20521;-88
2022/11/02 09:33:31;;;;;;;0.80;0.40;;;15.40;99.90;;;;;;5103102;28;20447;-88
2022/11/02 09:36:04;;;;;;;0.40;0.37;;;15.30;99.90;;;;;;5101904;28;20433;-87
2022/11/02 09:38:32;;;;;;;0.63;0.50;;;15.30;99.90;;;;;;5101423;28;20454;-88
2022/11/02 09:41:13;;;;;;;9.53;0.40;;;15.20;99.90;;;;;;5100960;28;20828;-88
2022/11/02 09:43:49;;;;;;;0.40;0.30;;;15.20;99.90;;;;;;5101164;28;20464;-88
2022/11/02 09:46:20;;;;;;;0.93;0.40;;;15.20;99.90;;;;;;5100202;28;20916;-89
2022/11/02 09:48:50;;;;;;;0.93;0.30;;;15.20;99.90;;;;;;5100618;28;20432;-88
2022/11/02 09:51:21;;;;;;;5.43;1.23;;;15.20;99.90;;;;;;5100370;28;20471;-88
2022/11/02 09:53:56;;;;;;;2.30;0.53;;;15.10;99.90;;;;;;5100404;28;20965;-88
2022/11/02 09:56:23;;;;;;;0.40;0.30;;;15.10;99.90;;;;;;5100929;28;20428;-88
2022/11/02 09:58:57;;;;;;;2.53;0.40;;;15.00;99.90;;;;;;5100953;28;20449;-88
2022/11/02 10:01:42;;;;;;;0.83;0.77;;;15.00;99.90;;;;;;5100570;28;20562;-88
2022/11/02 10:04:39;;;;;;;0.60;0.40;;;15.00;99.90;;;;;;5101706;28;20740;-88
2022/11/02 10:07:14;;;;;;;0.30;0.30;;;15.10;99.90;;;;;;5101663;28;20445;-88
2022/11/02 10:09:52;;;;;;;0.50;0.50;;;15.00;99.90;;;;;;5095481;28;20931;-81
2022/11/02 10:12:26;;;;;;;0.50;0.50;;;15.10;99.90;;;;;;5094711;28;20832;-81
2022/11/02 10:15:01;;;;;;;0.47;0.40;;;15.10;99.90;;;;;;5094796;28;20448;-82
2022/11/02 10:17:32;;;;;;;0.40;0.37;;;15.20;99.90;;;;;;5094996;28;20487;-82
2022/11/02 10:20:05;;;;;;;0.40;0.30;;;15.30;99.90;;;;;;5094935;28;20435;-82
2022/11/02 10:22:36;;;;;;;0.50;0.37;;;15.20;99.90;;;;;;5094937;28;20488;-82
2022/11/02 10:25:06;;;;;;;3.07;0.50;;;15.30;99.90;;;;;;5095115;28;20440;-81
2022/11/02 10:27:37;;;;;;;2.10;0.37;;;15.40;99.90;;;;;;5094771;28;20452;-81
2022/11/02 10:30:10;;;;;;;0.63;0.40;;;15.40;99.90;;;;;;5094763;28;20429;-82
2022/11/02 10:32:39;;;;;;;0.70;0.50;;;15.30;99.90;;;;;;5094398;28;20547;-82
2022/11/02 10:35:17;;;;;;;1.10;0.30;;;15.40;99.90;;;;;;5094606;28;20451;-82
2022/11/02 10:38:01;;;;;;;0.30;0.30;;;15.40;99.90;;;;;;5094424;28;20433;-82
2022/11/02 10:40:45;;;;;;;1.57;0.40;;;15.50;99.90;;;;;;5094309;28;20440;-82
2022/11/02 10:43:26;;;;;;;0.30;0.30;;;15.40;99.90;;;;;;5094299;28;20483;-83
2022/11/02 10:46:16;;;;;;;0.30;0.30;;;15.20;99.90;;;;;;5094064;28;20447;-82
2022/11/02 10:48:52;;;;;;;0.40;0.30;;;15.20;99.90;;;;;;5093907;28;20432;-82
2022/11/02 10:51:20;;;;;;;0.40;0.30;;;15.20;99.90;;;;;;5094235;28;20460;-81
2022/11/02 10:53:49;;;;;;;1.23;0.40;;;15.10;99.90;;;;;;5094723;28;20480;-82
2022/11/02 10:56:19;;;;;;;0.30;0.30;;;15.00;99.90;;;;;;5099762;28;20451;-85
2022/11/02 10:58:54;;;;;;;0.40;0.40;;;15.00;99.90;;;;;;5100407;28;20444;-85
2022/11/02 11:01:21;;;;;;;0.40;0.30;;;15.10;99.90;;;;;;5096926;28;20496;-85
2022/11/02 11:03:57;;;;;;;0.60;0.30;;;15.10;99.90;;;;;;5097291;28;20448;-86
2022/11/02 11:06:25;;;;;;;0.50;0.50;;;15.10;99.90;;;;;;5105656;28;20454;-86
2022/11/02 11:08:52;;;;;;;0.60;0.40;;;15.10;99.90;;;;;;5111969;28;20504;-85
2022/11/02 11:11:23;;;;;;;0.40;0.30;;;15.10;99.90;;;;;;5112425;28;20468;-86
2022/11/02 11:13:57;;;;;;;0.40;0.37;;;15.10;99.90;;;;;;5109741;28;20429;-85
2022/11/02 11:16:37;;;;;;;3.70;0.40;;;15.10;99.90;;;;;;5097133;28;20487;-84
2022/11/02 11:19:05;;;;;;;0.30;0.30;;;15.10;99.90;;;;;;5094498;28;20436;-82
2022/11/02 11:21:37;;;;;;;0.30;0.30;;;15.00;99.90;;;;;;5093678;28;20491;-81
2022/11/02 11:24:26;;;;;;;0.40;0.40;;;15.00;99.90;;;;;;5098226;28;20445;-86
2022/11/02 11:27:06;;;;;;;0.90;0.40;;;15.00;99.90;;;;;;5097318;28;20508;-86
2022/11/02 11:29:34;;;;;;;4.43;0.70;;;15.00;99.90;;;;;;5096508;28;20439;-86
2022/11/02 11:32:02;;;;;;;0.63;0.30;;;15.00;99.90;;;;;;5095720;28;20467;-85
2022/11/02 11:34:32;;;;;;;1.37;0.53;;;14.90;99.90;;;;;;5095244;28;20465;-86
2022/11/02 11:37:07;;;;;;;0.53;0.30;;;14.90;99.90;;;;;;5096039;28;20492;-86
2022/11/02 11:39:35;;;;;;;1.03;0.50;;;14.90;99.90;;;;;;5096544;28;20451;-86
2022/11/02 11:42:05;;;;;;;0.60;0.60;;;14.80;99.90;;;;;;5096918;28;20852;-86
2022/11/02 11:44:32;;;;;;;0.40;0.40;;;14.70;99.90;;;;;;5096333;28;20449;-86
2022/11/02 11:46:59;;;;;;;0.60;0.30;;;14.70;99.90;;;;;;5096949;28;20449;-86
2022/11/02 11:49:30;;;;;;;0.40;0.40;;;14.70;99.90;;;;;;5095948;28;20520;-85
2022/11/02 11:51:59;;;;;;;0.80;0.50;;;14.60;99.90;;;;;;5101954;28;20447;-86
2022/11/02 11:54:27;;;;;;;0.50;0.50;;;14.60;99.90;;;;;;5097000;28;20825;-86
2022/11/02 11:56:56;;;;;;;0.30;0.30;;;14.60;99.90;;;;;;5096082;28;20456;-84
2022/11/02 11:59:27;;;;;;;1.77;0.53;;;14.60;99.90;;;;;;5097656;28;20527;-87
2022/11/02 12:01:57;;;;;;;0.30;0.30;;;14.70;99.90;;;;;;5097186;28;21065;-88
2022/11/02 12:04:28;;;;;;;0.50;0.30;;;14.70;99.90;;;;;;5098046;28;20490;-87
2022/11/02 12:07:16;;;;;;;0.40;0.30;;;14.80;99.90;;;;;;5098193;28;20451;-87
2022/11/02 12:09:51;;;;;;;0.30;0.30;;;15.00;99.90;;;;;;5098780;28;20988;-88
2022/11/02 12:12:29;;;;;;;0.40;0.30;;;15.00;99.90;;;;;;5098641;28;20472;-87
2022/11/02 12:15:10;;;;;;;0.40;0.40;;;15.20;99.90;;;;;;5098457;28;20509;-88
2022/11/02 12:17:50;;;;;;;0.80;0.40;;;15.40;99.90;;;;;;5099393;28;20471;-88
2022/11/02 12:20:39;;;;;;;0.40;0.40;;;15.70;99.90;;;;;;5098578;28;20515;-88
2022/11/02 12:23:17;;;;;;;1.43;0.60;;;15.90;99.90;;;;;;5094469;28;20484;-87
2022/11/02 12:25:52;;;;;;;0.50;0.40;;;15.90;99.90;;;;;;5098214;28;20432;-87
2022/11/02 12:28:34;;;;;;;0.40;0.40;;;16.00;99.90;;;;;;5097039;28;20439;-88
2022/11/02 12:31:12;;;;;;;0.40;0.30;;;16.10;99.90;;;;;;5097727;28;20524;-88
2022/11/02 12:33:55;;;;;;;0.40;0.30;;;16.10;99.90;;;;;;5096228;28;20907;-86
2022/11/02 12:36:51;;;;;;;1.63;0.40;;;16.20;99.90;;;;;;5098021;28;20800;-87
2022/11/02 12:39:27;;;;;;;0.40;0.30;;;16.00;99.90;;;;;;5100793;28;20923;-87
2022/11/02 12:42:04;;;;;;;0.40;0.30;;;15.80;99.90;;;;;;5105131;28;20483;-88
2022/11/02 12:44:45;;;;;;;0.60;0.33;;;15.70;99.90;;;;;;5105879;28;20781;-88
2022/11/02 12:47:30;;;;;;;4.13;0.60;;;15.50;99.90;;;;;;5105177;28;20433;-85
2022/11/02 12:50:08;;;;;;;0.50;0.40;;;15.30;99.90;;;;;;5105340;28;20493;-88
2022/11/02 12:52:47;;;;;;;3.93;0.40;;;15.20;99.90;;;;;;5103926;28;20517;-87
2022/11/02 12:55:18;;;;;;;2.30;0.40;;;15.20;99.90;;;;;;5104266;28;20784;-88
2022/11/02 12:57:47;;;;;;;0.50;0.40;;;15.10;99.90;;;;;;5103886;28;20435;-87
2022/11/02 13:00:19;;;;;;;1.80;0.40;;;15.10;99.90;;;;;;5103867;28;20498;-88
2022/11/02 13:02:58;;;;;;;0.40;0.30;;;14.90;99.90;;;;;;5103487;28;20484;-87
2022/11/02 13:05:29;;;;;;;1.00;0.30;;;14.80;99.90;;;;;;5101430;28;20516;-87
2022/11/02 13:08:04;;;;;;;0.80;0.40;;;14.70;99.90;;;;;;5099744;28;20440;-88
2022/11/02 13:10:36;;;;;;;0.40;0.40;;;14.60;99.90;;;;;;5099512;28;20444;-87
2022/11/02 13:13:04;;;;;;;2.67;0.40;;;14.50;99.90;;;;;;5101584;28;20473;-88
2022/11/02 13:15:34;;;;;;;0.97;0.50;;;14.40;99.90;;;;;;5102495;28;20520;-89
2022/11/02 13:18:10;;;;;;;2.40;0.47;;;14.40;99.90;;;;;;5100823;28;20571;-89
2022/11/02 13:20:41;;;;;;;0.40;0.30;;;14.40;99.90;;;;;;5101028;28;20433;-88
2022/11/02 13:23:22;;;;;;;0.40;0.30;;;14.40;99.90;;;;;;5101077;28;20489;-89
2022/11/02 13:25:54;;;;;;;0.60;0.50;;;14.50;99.90;;;;;;5101750;28;20443;-88